Time;durP1;ratioP1;P1;durP2;ratioP2;P2;SDS_P1;SDS_P2;PMS_P1;PMS_P2;Temp;Humidity;BMP_temperature;BMP_pressure;BME280_temperature;BME280_humidity;BME280_pressure;Samples;Min_cycle;Max_cycle;Signal;HPM_P1;HPM_P2
2022/11/15 00:00:42;;;;;;;8.23;6.80;;;;;;;9.38;85.80;100118.56;5055494;28;20483;-76
2022/11/15 00:03:07;;;;;;;10.60;6.73;;;;;;;9.38;85.25;100110.47;5049060;28;20513;-76
2022/11/15 00:05:35;;;;;;;7.63;6.43;;;;;;;9.40;85.55;100107.53;5055004;28;20418;-76
2022/11/15 00:08:01;;;;;;;8.55;6.78;;;;;;;9.41;85.55;100111.88;5086884;28;20881;-77
2022/11/15 00:10:26;;;;;;;10.43;6.88;;;;;;;9.39;85.18;100106.69;5057807;28;20419;-77
2022/11/15 00:12:51;;;;;;;9.17;6.80;;;;;;;9.39;85.21;100108.56;5050758;28;20413;-77
2022/11/15 00:15:17;;;;;;;8.27;6.03;;;;;;;9.35;85.64;100110.16;5046058;28;20470;-76
2022/11/15 00:17:42;;;;;;;10.33;6.73;;;;;;;9.33;85.84;100107.69;5049129;28;20413;-77
2022/11/15 00:20:08;;;;;;;9.27;6.50;;;;;;;9.32;85.61;100114.16;5048710;28;20443;-76
2022/11/15 00:22:33;;;;;;;8.77;6.40;;;;;;;9.34;85.42;100106.63;5046213;28;20415;-77
2022/11/15 00:24:58;;;;;;;9.25;6.30;;;;;;;9.31;85.51;100107.13;5050425;28;20780;-76
2022/11/15 00:27:24;;;;;;;8.30;6.60;;;;;;;9.33;85.36;100104.16;5048070;28;20484;-77
2022/11/15 00:29:49;;;;;;;8.27;6.47;;;;;;;9.32;85.89;100107.91;5054555;28;20892;-76
2022/11/15 00:32:14;;;;;;;9.73;6.37;;;;;;;9.29;85.65;100111.09;5049369;28;20401;-76
2022/11/15 00:34:40;;;;;;;7.82;6.88;;;;;;;9.34;85.82;100103.09;5048456;28;20471;-76
2022/11/15 00:37:06;;;;;;;8.77;6.40;;;;;;;9.34;85.55;100097.69;5054573;28;20415;-76
2022/11/15 00:39:31;;;;;;;10.05;6.32;;;;;;;9.37;85.85;100106.13;5053196;28;20415;-76
2022/11/15 00:41:57;;;;;;;10.63;6.37;;;;;;;9.38;85.74;100090.72;5055317;28;20393;-76
2022/11/15 00:44:22;;;;;;;9.50;6.40;;;;;;;9.37;85.70;100099.91;5050368;28;20414;-76
2022/11/15 00:46:47;;;;;;;9.23;6.70;;;;;;;9.42;85.77;100091.06;5046247;28;20413;-76
2022/11/15 00:49:12;;;;;;;7.87;6.13;;;;;;;9.48;85.35;100088.19;5043632;28;20491;-76
2022/11/15 00:51:38;;;;;;;8.63;6.17;;;;;;;9.52;85.24;100086.59;5049125;28;20409;-77
2022/11/15 00:54:03;;;;;;;9.37;6.37;;;;;;;9.57;85.33;100080.47;5047542;28;20615;-76
2022/11/15 00:56:28;;;;;;;11.40;6.53;;;;;;;9.58;85.25;100077.50;5047008;28;20488;-76
2022/11/15 00:58:54;;;;;;;7.83;6.10;;;;;;;9.57;85.13;100075.06;5048787;28;20424;-76
2022/11/15 01:01:21;;;;;;;6.83;6.00;;;;;;;9.55;85.45;100077.19;5050243;28;20409;-76
2022/11/15 01:03:46;;;;;;;8.30;6.20;;;;;;;9.62;85.11;100072.41;5053144;28;20437;-76
2022/11/15 01:06:11;;;;;;;12.00;6.30;;;;;;;9.58;85.50;100069.38;5052699;28;20434;-76
2022/11/15 01:08:41;;;;;;;10.13;6.97;;;;;;;9.55;85.72;100069.88;5053402;28;20473;-76
2022/11/15 01:11:10;;;;;;;12.60;7.35;;;;;;;9.57;85.64;100058.81;5055595;28;20422;-76
2022/11/15 01:13:36;;;;;;;14.52;7.20;;;;;;;9.56;85.86;100060.72;5049248;28;20756;-76
2022/11/15 01:16:07;;;;;;;11.70;7.03;;;;;;;9.56;85.55;100058.00;5045997;28;20892;-77
2022/11/15 01:18:32;;;;;;;8.90;6.50;;;;;;;9.64;85.20;100060.31;5040662;28;22108;-77
2022/11/15 01:20:58;;;;;;;10.55;6.65;;;;;;;9.65;85.12;100061.91;5042040;28;20555;-76
2022/11/15 01:23:23;;;;;;;10.03;6.37;;;;;;;9.65;85.15;100064.63;5045333;28;20635;-76
2022/11/15 01:25:48;;;;;;;7.35;5.78;;;;;;;9.65;85.15;100061.91;5029043;28;20419;-76
2022/11/15 01:28:13;;;;;;;6.90;6.20;;;;;;;9.68;85.20;100057.91;5047880;28;20471;-76
2022/11/15 01:30:39;;;;;;;6.60;5.93;;;;;;;9.72;84.98;100059.03;5049736;28;20551;-76
2022/11/15 01:33:04;;;;;;;6.33;5.10;;;;;;;9.70;85.39;100069.31;5051931;28;20418;-76
2022/11/15 01:35:29;;;;;;;5.87;5.27;;;;;;;9.67;85.40;100059.81;5052351;28;20397;-76
2022/11/15 01:37:54;;;;;;;7.73;5.47;;;;;;;9.69;85.67;100064.94;5054774;28;20436;-76
2022/11/15 01:40:20;;;;;;;6.30;5.70;;;;;;;9.71;85.76;100060.94;5054905;28;20397;-76
2022/11/15 01:42:45;;;;;;;6.43;5.57;;;;;;;9.69;85.37;100056.84;5052176;28;20417;-77
2022/11/15 01:45:15;;;;;;;6.30;5.70;;;;;;;9.70;85.59;100056.59;5048796;28;20959;-76
2022/11/15 01:47:46;;;;;;;7.47;5.60;;;;;;;9.69;85.33;100046.84;5042478;28;20400;-76
2022/11/15 01:50:16;;;;;;;7.13;5.60;;;;;;;9.71;85.46;100043.91;5035077;28;21001;-77
2022/11/15 01:52:42;;;;;;;9.90;5.25;;;;;;;9.69;85.62;100040.59;5045333;28;21098;-77
2022/11/15 01:55:18;;;;;;;6.32;4.95;;;;;;;9.74;85.40;100036.09;5044643;28;20501;-76
2022/11/15 01:57:46;;;;;;;10.23;5.90;;;;;;;9.72;85.72;100035.50;5049861;28;20435;-76
2022/11/15 02:00:13;;;;;;;7.30;5.65;;;;;;;9.73;85.53;100030.91;5044491;28;20779;-76
2022/11/15 02:02:39;;;;;;;5.88;5.20;;;;;;;9.75;85.52;100024.19;5041511;28;20403;-77
2022/11/15 02:05:04;;;;;;;8.35;5.97;;;;;;;9.78;85.50;100037.22;5052979;28;20618;-76
2022/11/15 02:07:32;;;;;;;6.60;5.80;;;;;;;9.78;85.33;100031.00;5052015;28;20774;-77
2022/11/15 02:10:07;;;;;;;6.45;5.82;;;;;;;9.82;85.20;100019.41;5054342;28;20416;-77
2022/11/15 02:12:33;;;;;;;7.75;5.90;;;;;;;9.82;85.40;100015.88;5050541;28;20407;-76
2022/11/15 02:14:58;;;;;;;5.70;5.20;;;;;;;9.80;85.39;100008.03;5054172;28;20438;-76
2022/11/15 02:17:45;;;;;;;8.87;6.07;;;;;;;9.78;85.46;100012.06;5056620;28;20405;-76
2022/11/15 02:20:46;;;;;;;6.15;5.55;;;;;;;9.78;85.30;100009.34;5053555;28;20413;-77
2022/11/15 02:23:57;;;;;;;6.57;5.53;;;;;;;9.78;85.27;99993.91;5047773;28;20427;-76
2022/11/15 02:27:02;;;;;;;7.72;5.57;;;;;;;9.80;85.54;99982.84;5046613;28;20401;-76
2022/11/15 02:29:47;;;;;;;10.43;5.65;;;;;;;9.81;85.23;99984.50;5042759;28;20410;-76
2022/11/15 02:32:20;;;;;;;11.48;5.70;;;;;;;9.79;85.50;99990.16;5042025;28;20447;-76
2022/11/15 02:35:01;;;;;;;6.32;5.38;;;;;;;9.80;85.55;99990.97;5053269;28;20401;-77
2022/11/15 02:37:42;;;;;;;7.80;5.22;;;;;;;9.79;85.12;99982.03;5052204;28;20924;-76
2022/11/15 02:40:19;;;;;;;7.50;5.75;;;;;;;9.77;85.58;99986.88;5045843;28;20469;-76
2022/11/15 02:45:43;;;;;;;7.65;5.60;;;;;;;9.79;85.31;99990.16;5055607;28;20458;-76
2022/11/15 02:48:10;;;;;;;7.53;6.15;;;;;;;9.83;85.43;99982.34;5054639;28;20474;-76
2022/11/15 02:50:36;;;;;;;7.03;5.67;;;;;;;9.83;85.44;99969.63;5047451;28;20437;-76
2022/11/15 02:53:02;;;;;;;9.27;6.60;;;;;;;9.86;85.30;99971.00;5042820;28;20908;-77
2022/11/15 02:55:29;;;;;;;9.88;7.78;;;;;;;9.90;85.35;99969.44;5045670;28;20924;-76
2022/11/15 02:58:19;;;;;;;11.98;8.15;;;;;;;9.93;85.17;99968.13;5041618;28;20413;-76
2022/11/15 03:01:02;;;;;;;11.40;7.88;;;;;;;9.94;85.21;99972.47;5047594;28;20428;-76
2022/11/15 03:03:50;;;;;;;9.45;8.25;;;;;;;9.96;84.99;99973.03;5053604;28;20415;-76
2022/11/15 03:06:27;;;;;;;9.45;7.47;;;;;;;9.97;85.17;99971.97;5043840;28;20403;-76
2022/11/15 03:09:01;;;;;;;9.90;7.93;;;;;;;9.96;85.29;99960.31;5049070;28;20411;-77
2022/11/15 03:11:33;;;;;;;10.13;7.90;;;;;;;9.95;85.00;99963.25;5051426;28;20643;-76
2022/11/15 03:14:09;;;;;;;10.55;7.13;;;;;;;9.95;85.36;99955.97;5042016;28;20807;-77
2022/11/15 03:16:43;;;;;;;8.55;7.05;;;;;;;9.97;85.21;99959.25;5049570;28;20869;-76
2022/11/15 03:19:20;;;;;;;10.57;7.50;;;;;;;9.96;85.15;99957.63;5051545;28;20424;-77
2022/11/15 03:21:49;;;;;;;8.77;7.32;;;;;;;9.92;85.57;99953.75;5042181;28;21105;-76
2022/11/15 03:24:15;;;;;;;9.90;7.50;;;;;;;9.91;85.62;99952.94;5040062;28;20433;-76
2022/11/15 03:26:43;;;;;;;10.60;7.60;;;;;;;9.95;85.41;99953.25;5043624;28;20408;-76
2022/11/15 03:29:19;;;;;;;8.18;7.25;;;;;;;9.97;85.25;99956.53;5035573;28;20486;-76
2022/11/15 03:31:51;;;;;;;7.63;6.63;;;;;;;9.97;85.22;99951.13;5052167;28;20463;-76
2022/11/15 03:34:34;;;;;;;9.95;6.80;;;;;;;9.96;84.92;99954.91;5053815;28;20812;-77
2022/11/15 03:36:59;;;;;;;8.90;7.50;;;;;;;9.93;85.43;99944.59;5056521;28;20498;-76
2022/11/15 03:39:26;;;;;;;8.07;6.95;;;;;;;9.91;85.38;99947.53;5052176;28;20504;-77
2022/11/15 03:42:03;;;;;;;9.73;6.90;;;;;;;9.94;85.24;99945.41;5055919;28;20440;-76
2022/11/15 03:45:00;;;;;;;11.38;7.50;;;;;;;9.96;85.23;99949.50;5047807;28;20432;-76
2022/11/15 03:47:34;;;;;;;10.27;7.03;;;;;;;9.98;85.29;99947.34;5032169;28;20757;-77
2022/11/15 03:50:13;;;;;;;12.32;7.25;;;;;;;9.97;85.22;99944.91;5050165;28;20409;-77
2022/11/15 03:52:40;;;;;;;8.63;7.40;;;;;;;9.99;85.12;99942.75;5058432;28;20418;-77
2022/11/15 03:55:10;;;;;;;11.05;7.95;;;;;;;10.00;85.12;99944.38;5052559;28;20433;-77
2022/11/15 03:57:35;;;;;;;9.83;8.07;;;;;;;9.99;85.47;99950.88;5048394;28;20552;-76
2022/11/15 04:00:00;;;;;;;11.70;8.63;;;;;;;10.02;85.38;99958.47;5044635;28;20839;-77
2022/11/15 04:02:26;;;;;;;10.90;8.90;;;;;;;10.04;85.21;99961.78;5044246;28;20826;-76
2022/11/15 04:04:51;;;;;;;10.20;7.43;;;;;;;10.08;85.28;99950.16;5052854;28;20416;-77
2022/11/15 04:07:16;;;;;;;13.27;8.60;;;;;;;10.08;85.30;99952.03;5053158;28;20494;-77
2022/11/15 04:12:32;;;;;;;19.13;12.05;;;;;;;10.05;85.46;99955.25;5050593;28;20410;-76
2022/11/15 04:15:08;;;;;;;14.30;11.20;;;;;;;10.04;85.40;99945.53;5054741;28;20777;-76
2022/11/15 04:17:45;;;;;;;12.35;9.20;;;;;;;10.09;85.39;99948.28;5057308;28;20421;-77
2022/11/15 04:25:48;;;;;;;12.93;8.90;;;;;;;10.14;85.08;99951.88;5050631;28;20412;-77
2022/11/15 04:28:14;;;;;;;10.23;8.05;;;;;;;10.13;85.00;99957.53;5039308;28;21015;-77
2022/11/15 04:30:39;;;;;;;8.65;7.75;;;;;;;10.07;85.51;99951.25;5041852;28;20411;-77
2022/11/15 04:33:04;;;;;;;9.27;7.77;;;;;;;10.05;85.85;99952.56;5050835;28;20432;-77
2022/11/15 04:35:30;;;;;;;9.02;6.68;;;;;;;10.04;85.85;99948.22;5052934;28;20405;-77
2022/11/15 04:37:56;;;;;;;10.13;6.68;;;;;;;10.11;85.52;99949.66;5057310;28;20407;-76
2022/11/15 04:40:22;;;;;;;7.20;5.88;;;;;;;10.12;85.51;99939.66;5055853;28;20424;-77
2022/11/15 04:42:47;;;;;;;8.87;6.03;;;;;;;10.12;85.37;99931.53;5046543;28;20417;-77
2022/11/15 04:45:13;;;;;;;7.30;5.97;;;;;;;10.13;85.23;99927.75;5044992;28;20446;-76
2022/11/15 04:47:38;;;;;;;10.47;6.10;;;;;;;10.11;85.36;99933.41;5053872;28;20405;-77
2022/11/15 04:50:04;;;;;;;7.67;5.73;;;;;;;10.13;85.12;99927.75;5050747;28;20412;-76
2022/11/15 04:52:29;;;;;;;7.05;5.68;;;;;;;10.11;85.17;99927.19;5045247;28;20405;-77
2022/11/15 04:54:54;;;;;;;7.23;5.70;;;;;;;10.10;85.21;99929.09;5044328;28;20423;-77
2022/11/15 04:57:20;;;;;;;6.80;5.93;;;;;;;10.11;85.18;99930.69;5050088;28;20401;-76
2022/11/15 04:59:46;;;;;;;9.90;7.27;;;;;;;10.10;85.45;99931.78;5051188;28;20409;-77
2022/11/15 05:02:11;;;;;;;8.63;5.70;;;;;;;10.13;85.30;99925.03;5044286;28;20457;-76
2022/11/15 05:04:36;;;;;;;10.00;6.93;;;;;;;10.16;85.37;99924.56;5052485;28;20425;-76
2022/11/15 05:07:03;;;;;;;7.90;6.57;;;;;;;10.16;85.29;99919.97;5047988;28;20410;-76
2022/11/15 05:09:29;;;;;;;10.82;7.07;;;;;;;10.20;85.21;99926.50;5042890;28;20421;-76
2022/11/15 05:11:54;;;;;;;7.13;6.00;;;;;;;10.23;85.31;99930.59;5042869;28;20417;-76
2022/11/15 05:14:19;;;;;;;10.23;6.80;;;;;;;10.21;85.41;99927.31;5050793;28;20412;-76
2022/11/15 05:16:45;;;;;;;7.77;6.67;;;;;;;10.20;85.39;99926.50;5042996;28;20422;-76
2022/11/15 05:19:10;;;;;;;7.63;6.20;;;;;;;10.18;85.44;99919.69;5042955;28;20506;-77
2022/11/15 05:21:36;;;;;;;10.97;6.47;;;;;;;10.18;85.44;99914.28;5048759;28;20414;-77
2022/11/15 05:24:01;;;;;;;6.83;5.87;;;;;;;10.17;85.50;99915.38;5043509;28;20892;-77
2022/11/15 05:26:27;;;;;;;7.60;6.80;;;;;;;10.17;85.52;99923.50;5042147;28;20793;-76
2022/11/15 05:28:57;;;;;;;9.68;6.25;;;;;;;10.16;85.49;99925.38;5044884;28;20423;-77
2022/11/15 05:31:23;;;;;;;8.03;6.37;;;;;;;10.14;85.61;99926.72;5049587;28;20464;-76
2022/11/15 05:33:51;;;;;;;9.70;6.15;;;;;;;10.13;85.63;99908.78;5045933;28;20409;-77
2022/11/15 05:36:26;;;;;;;7.38;6.00;;;;;;;10.13;85.43;99920.44;5048156;28;20417;-77
2022/11/15 05:38:52;;;;;;;9.30;5.65;;;;;;;10.14;85.51;99913.19;5053419;28;20765;-77
2022/11/15 05:41:25;;;;;;;8.88;5.68;;;;;;;10.15;85.43;99920.22;5051668;28;20449;-76
2022/11/15 05:43:51;;;;;;;8.15;6.40;;;;;;;10.16;85.18;99911.03;5050143;28;20433;-77
2022/11/15 05:46:17;;;;;;;9.70;6.07;;;;;;;10.13;85.33;99912.31;5051260;28;20402;-77
2022/11/15 05:48:47;;;;;;;9.05;6.03;;;;;;;10.11;85.24;99911.75;5055280;28;20442;-76
2022/11/15 05:51:16;;;;;;;8.95;6.65;;;;;;;10.06;85.58;99914.41;5050813;28;20434;-76
2022/11/15 05:53:41;;;;;;;12.15;7.05;;;;;;;10.03;85.71;99916.81;5051255;28;20381;-76
2022/11/15 05:56:12;;;;;;;12.48;7.75;;;;;;;9.99;85.59;99919.19;5052235;28;20427;-77
2022/11/15 05:58:37;;;;;;;10.63;7.43;;;;;;;9.94;85.58;99916.47;5052860;28;20402;-76
2022/11/15 06:01:03;;;;;;;10.00;7.30;;;;;;;9.89;85.93;99917.19;5057289;28;20395;-77
2022/11/15 06:03:29;;;;;;;8.60;6.63;;;;;;;9.88;85.86;99918.25;5051398;28;20528;-76
2022/11/15 06:05:54;;;;;;;9.10;6.40;;;;;;;9.91;85.91;99922.38;5054347;28;20500;-76
2022/11/15 06:08:19;;;;;;;8.70;6.43;;;;;;;9.89;85.75;99911.78;5058099;28;20414;-76
2022/11/15 06:10:45;;;;;;;10.73;7.70;;;;;;;9.90;85.96;99912.63;5057713;28;20887;-76
2022/11/15 06:13:10;;;;;;;10.68;8.73;;;;;;;9.91;86.08;99912.34;5051015;28;20401;-76
2022/11/15 06:15:35;;;;;;;8.27;7.50;;;;;;;9.95;85.75;99903.72;5045754;28;20402;-75
2022/11/15 06:18:01;;;;;;;7.72;6.82;;;;;;;9.95;86.15;99901.81;5047649;28;20444;-76
2022/11/15 06:20:28;;;;;;;11.57;7.67;;;;;;;9.98;85.96;99903.22;5048774;28;20756;-76
2022/11/15 06:23:02;;;;;;;8.07;7.28;;;;;;;9.99;85.67;99900.25;5058857;28;20451;-76
2022/11/15 06:25:28;;;;;;;8.85;7.18;;;;;;;10.00;85.86;99901.91;5052125;28;20397;-76
2022/11/15 06:27:55;;;;;;;8.77;7.10;;;;;;;10.02;85.62;99896.22;5054510;28;20422;-77
2022/11/15 06:30:22;;;;;;;8.68;6.97;;;;;;;10.03;85.91;99895.16;5056250;28;20783;-76
2022/11/15 06:32:47;;;;;;;9.13;7.45;;;;;;;10.04;85.66;99894.09;5050209;28;20956;-75
2022/11/15 06:35:13;;;;;;;9.53;7.43;;;;;;;10.03;86.08;99900.56;5053599;28;20497;-75
2022/11/15 06:37:38;;;;;;;11.32;7.75;;;;;;;10.04;85.85;99896.78;5054632;28;20413;-75
2022/11/15 06:40:04;;;;;;;9.43;6.85;;;;;;;10.06;85.68;99900.06;5050963;28;20479;-75
2022/11/15 06:42:30;;;;;;;10.80;6.70;;;;;;;10.04;86.20;99894.09;5049937;28;20409;-75
2022/11/15 06:44:55;;;;;;;12.20;7.70;;;;;;;10.06;86.11;99894.63;5055439;28;20466;-75
2022/11/15 06:47:20;;;;;;;15.33;7.53;;;;;;;10.07;86.09;99893.56;5049132;28;20912;-75
2022/11/15 06:49:45;;;;;;;14.07;7.90;;;;;;;10.07;85.81;99889.00;5056596;28;20479;-75
2022/11/15 06:52:11;;;;;;;12.87;7.63;;;;;;;10.09;85.68;99894.13;5048912;28;20422;-76
2022/11/15 06:54:36;;;;;;;10.10;7.57;;;;;;;10.10;85.60;99891.19;5050671;28;20535;-75
2022/11/15 06:57:03;;;;;;;12.98;7.72;;;;;;;10.11;86.00;99890.09;5051092;28;20412;-74
2022/11/15 06:59:28;;;;;;;8.90;6.03;;;;;;;10.11;85.71;99894.72;5052156;28;20809;-75
2022/11/15 07:01:54;;;;;;;6.43;5.72;;;;;;;10.12;85.94;99897.16;5052003;28;20409;-75
2022/11/15 07:04:19;;;;;;;6.63;5.20;;;;;;;10.14;85.98;99897.72;5051833;28;20440;-74
2022/11/15 07:06:47;;;;;;;8.20;5.60;;;;;;;10.18;85.92;99906.97;5057783;28;20401;-75
2022/11/15 07:09:12;;;;;;;7.80;5.30;;;;;;;10.18;85.74;99898.84;5060977;28;20428;-75
2022/11/15 07:11:38;;;;;;;8.53;5.30;;;;;;;10.18;85.11;99896.16;5057240;28;20491;-75
2022/11/15 07:14:03;;;;;;;6.03;5.43;;;;;;;10.19;85.66;99896.97;5059507;28;20840;-75
2022/11/15 07:16:28;;;;;;;7.53;5.90;;;;;;;10.20;85.77;99906.75;5059878;28;20466;-74
2022/11/15 07:18:53;;;;;;;7.60;5.40;;;;;;;10.22;85.85;99908.13;5055328;28;20409;-75
2022/11/15 07:21:19;;;;;;;7.53;5.70;;;;;;;10.25;85.61;99899.47;5060008;28;20401;-74
2022/11/15 07:23:44;;;;;;;13.30;7.47;;;;;;;10.29;85.53;99908.72;5054684;28;20417;-75
2022/11/15 07:26:09;;;;;;;8.63;7.20;;;;;;;10.31;85.16;99908.44;5049641;28;20513;-75
2022/11/15 07:28:35;;;;;;;6.83;5.97;;;;;;;10.32;85.48;99908.22;5049661;28;20409;-75
2022/11/15 07:31:08;;;;;;;8.27;5.40;;;;;;;10.33;85.26;99909.84;5058093;28;20867;-75
2022/11/15 07:33:34;;;;;;;7.00;5.07;;;;;;;10.36;85.19;99901.22;5057365;28;20401;-75
2022/11/15 07:36:01;;;;;;;8.88;4.75;;;;;;;10.36;85.13;99900.38;5057711;28;20733;-75
2022/11/15 07:38:27;;;;;;;7.67;4.93;;;;;;;10.35;85.44;99910.41;5056543;28;20700;-75
2022/11/15 07:41:00;;;;;;;6.33;4.70;;;;;;;10.36;85.29;99913.94;5059005;28;20485;-75
2022/11/15 07:43:27;;;;;;;7.07;4.47;;;;;;;10.38;85.13;99904.47;5059383;28;20425;-75
2022/11/15 07:45:53;;;;;;;9.60;5.18;;;;;;;10.41;85.29;99905.84;5058847;28;20967;-75
2022/11/15 07:48:18;;;;;;;7.17;4.97;;;;;;;10.45;85.08;99904.25;5057606;28;20420;-74
2022/11/15 07:50:44;;;;;;;8.73;5.33;;;;;;;10.48;84.97;99906.44;5063518;28;20399;-76
2022/11/15 07:53:10;;;;;;;7.83;4.97;;;;;;;10.48;85.04;99914.56;5050554;28;20551;-76
2022/11/15 07:55:36;;;;;;;8.80;5.20;;;;;;;10.52;85.02;99910.28;5053460;28;20398;-76
2022/11/15 07:58:06;;;;;;;13.50;6.18;;;;;;;10.55;85.12;99904.34;5051835;28;20410;-76
2022/11/15 08:00:32;;;;;;;9.07;6.55;;;;;;;10.58;85.08;99901.13;5039389;28;20751;-75
2022/11/15 08:03:09;;;;;;;15.57;8.25;;;;;;;10.62;85.23;99898.72;5056552;28;20400;-76
2022/11/15 08:05:36;;;;;;;19.52;11.00;;;;;;;10.65;85.24;99892.78;5055117;28;20807;-75
2022/11/15 08:08:02;;;;;;;14.45;8.77;;;;;;;10.71;85.24;99903.41;5055503;28;20405;-75
2022/11/15 08:10:28;;;;;;;15.73;9.07;;;;;;;10.76;85.12;99910.75;5058675;28;20399;-75
2022/11/15 08:13:12;;;;;;;12.10;7.77;;;;;;;10.80;85.11;99901.03;5040249;28;20412;-76
2022/11/15 08:15:38;;;;;;;10.73;6.28;;;;;;;10.86;84.78;99897.28;5049247;28;20888;-76
2022/11/15 08:18:15;;;;;;;8.93;6.07;;;;;;;10.91;84.94;99895.41;5052948;28;20463;-75
2022/11/15 08:20:41;;;;;;;9.93;5.43;;;;;;;11.02;84.86;99909.06;5064367;28;20411;-75
2022/11/15 08:23:07;;;;;;;7.35;5.70;;;;;;;11.00;85.02;99913.94;5060513;28;20798;-75
2022/11/15 08:25:34;;;;;;;8.50;5.70;;;;;;;11.09;84.68;99912.34;5054020;28;20389;-76
2022/11/15 08:28:01;;;;;;;10.25;6.90;;;;;;;11.15;84.78;99901.28;5055566;28;20396;-76
2022/11/15 08:30:27;;;;;;;8.32;6.50;;;;;;;11.20;84.70;99909.44;5051514;28;20413;-75
2022/11/15 08:32:53;;;;;;;8.98;6.32;;;;;;;11.25;84.61;99901.34;5052873;28;20412;-76
2022/11/15 08:35:20;;;;;;;7.78;5.53;;;;;;;11.29;84.89;99899.75;5056303;28;20504;-76
2022/11/15 08:37:45;;;;;;;9.07;5.72;;;;;;;11.33;85.04;99887.25;5056710;28;20531;-76
2022/11/15 08:40:11;;;;;;;7.43;5.38;;;;;;;11.35;84.96;99879.69;5056607;28;20478;-75
2022/11/15 08:42:37;;;;;;;8.48;5.50;;;;;;;11.38;85.01;99884.59;5053133;28;20400;-76
2022/11/15 08:45:02;;;;;;;11.30;5.95;;;;;;;11.42;85.24;99883.00;5057709;28;20421;-75
2022/11/15 08:47:28;;;;;;;8.73;5.30;;;;;;;11.39;85.52;99886.19;5054333;28;20504;-75
2022/11/15 08:49:53;;;;;;;11.67;5.93;;;;;;;11.41;85.62;99883.25;5054147;28;20409;-76
2022/11/15 08:52:19;;;;;;;10.93;5.90;;;;;;;11.44;85.73;99886.25;5052129;28;20431;-75
2022/11/15 08:54:44;;;;;;;7.60;5.30;;;;;;;11.50;85.77;99886.25;5051017;28;20483;-76
2022/11/15 08:57:09;;;;;;;8.30;5.77;;;;;;;11.54;85.82;99887.38;5052746;28;20393;-76
2022/11/15 08:59:36;;;;;;;11.03;5.90;;;;;;;11.59;85.56;99884.69;5051468;28;20726;-75
2022/11/15 09:02:01;;;;;;;10.25;6.30;;;;;;;11.61;86.07;99885.22;5051125;28;20402;-75
2022/11/15 09:04:27;;;;;;;9.35;7.10;;;;;;;11.63;86.00;99886.59;5051152;28;20478;-76
2022/11/15 09:06:52;;;;;;;10.63;7.65;;;;;;;11.61;86.14;99877.91;5050093;28;20405;-75
2022/11/15 09:09:18;;;;;;;9.07;7.73;;;;;;;11.63;86.48;99878.44;5050446;28;20442;-75
2022/11/15 09:11:43;;;;;;;14.67;11.43;;;;;;;11.64;86.41;99871.94;5051000;28;20397;-75
2022/11/15 09:14:11;;;;;;;15.47;11.00;;;;;;;11.66;86.52;99874.38;5052303;28;20895;-75
2022/11/15 09:16:36;;;;;;;14.93;11.23;;;;;;;11.66;86.56;99871.66;5051544;28;20560;-75
2022/11/15 09:19:01;;;;;;;16.63;11.82;;;;;;;11.68;86.86;99878.47;5052129;28;20488;-75
2022/11/15 09:21:28;;;;;;;13.23;9.43;;;;;;;11.71;86.71;99872.56;5051779;28;20416;-76
2022/11/15 09:23:54;;;;;;;13.33;8.87;;;;;;;11.76;86.83;99874.44;5050325;28;20421;-75
2022/11/15 09:26:19;;;;;;;12.83;8.67;;;;;;;11.80;86.79;99868.22;5050809;28;20462;-75
2022/11/15 09:28:44;;;;;;;11.98;8.70;;;;;;;11.85;86.74;99862.00;5051429;28;20452;-75
2022/11/15 09:31:10;;;;;;;9.93;7.47;;;;;;;11.91;86.91;99872.63;5050195;28;20413;-76
2022/11/15 09:33:36;;;;;;;12.13;7.70;;;;;;;11.92;86.81;99870.72;5049223;28;20417;-76
2022/11/15 09:36:07;;;;;;;13.55;8.02;;;;;;;11.92;86.80;99868.00;5050196;28;21931;-76
2022/11/15 09:38:33;;;;;;;13.90;7.45;;;;;;;11.91;86.93;99875.31;5050057;28;20393;-75
2022/11/15 09:41:13;;;;;;;9.97;6.87;;;;;;;11.93;86.92;99869.63;5052950;28;21015;-76
2022/11/15 09:43:50;;;;;;;9.35;7.00;;;;;;;11.94;87.17;99868.53;5049187;28;20958;-76
2022/11/15 09:46:36;;;;;;;8.73;7.63;;;;;;;11.96;87.03;99871.78;5050531;28;20824;-76
2022/11/15 09:49:03;;;;;;;10.38;7.55;;;;;;;11.97;87.13;99862.56;5051185;28;20429;-76
2022/11/15 09:51:36;;;;;;;15.10;8.38;;;;;;;12.01;87.12;99865.56;5050626;28;20876;-76
2022/11/15 09:54:32;;;;;;;14.50;9.23;;;;;;;12.01;87.17;99862.84;5048117;28;21785;-75
2022/11/15 09:57:06;;;;;;;22.08;12.68;;;;;;;12.02;87.21;99869.94;5048047;28;20401;-75
2022/11/15 09:59:56;;;;;;;21.23;12.90;;;;;;;12.01;87.39;99871.81;5049751;28;20408;-75
2022/11/15 10:02:47;;;;;;;17.92;12.13;;;;;;;12.00;87.51;99872.91;5052302;28;21066;-75
2022/11/15 10:05:20;;;;;;;22.33;12.40;;;;;;;12.00;87.85;99866.63;5048873;28;20431;-75
2022/11/15 10:08:09;;;;;;;18.58;11.60;;;;;;;12.02;87.75;99872.63;5051662;28;20448;-76
2022/11/15 10:10:52;;;;;;;25.17;15.60;;;;;;;12.06;88.04;99869.09;5048978;28;20748;-75
2022/11/15 10:13:24;;;;;;;30.65;17.30;;;;;;;12.05;88.10;99875.63;5050600;28;20458;-76
2022/11/15 10:15:51;;;;;;;24.70;14.32;;;;;;;12.08;88.21;99869.66;5055956;28;20390;-76
2022/11/15 10:18:53;;;;;;;22.75;13.52;;;;;;;12.12;88.16;99870.72;5060192;28;20789;-75
2022/11/15 10:21:38;;;;;;;18.48;13.15;;;;;;;12.14;88.09;99865.88;5045312;28;20405;-75
2022/11/15 10:24:11;;;;;;;20.05;14.38;;;;;;;12.16;88.01;99862.88;5050077;28;20409;-75
2022/11/15 10:26:37;;;;;;;22.05;16.73;;;;;;;12.18;88.09;99868.88;5052228;28;20412;-75
2022/11/15 10:29:02;;;;;;;13.27;10.80;;;;;;;12.19;87.87;99867.75;5052588;28;20769;-75
2022/11/15 10:31:28;;;;;;;13.87;10.13;;;;;;;12.20;88.08;99862.06;5053248;28;20888;-74
2022/11/15 10:34:26;;;;;;;12.68;10.00;;;;;;;12.26;87.92;99855.56;5055345;28;20400;-73
2022/11/15 10:37:01;;;;;;;11.32;9.88;;;;;;;12.29;87.75;99843.31;5059703;28;20459;-75
2022/11/15 10:39:27;;;;;;;12.95;10.65;;;;;;;12.31;87.86;99844.69;5054277;28;20400;-75
2022/11/15 10:41:55;;;;;;;17.92;12.25;;;;;;;12.33;87.80;99837.09;5059691;28;20914;-75
2022/11/15 10:44:20;;;;;;;16.73;12.10;;;;;;;12.34;87.65;99844.16;5056064;28;20423;-75
2022/11/15 10:46:56;;;;;;;18.90;12.40;;;;;;;12.38;87.47;99834.34;5057545;28;20405;-75
2022/11/15 10:49:28;;;;;;;19.85;12.60;;;;;;;12.43;87.59;99826.22;5059132;28;20409;-76
2022/11/15 10:52:00;;;;;;;15.00;9.45;;;;;;;12.49;87.56;99821.59;5054293;28;20412;-76
2022/11/15 10:54:40;;;;;;;16.98;12.50;;;;;;;12.55;86.94;99814.22;5045473;28;20405;-76
2022/11/15 10:57:15;;;;;;;14.27;9.57;;;;;;;12.66;86.87;99805.81;5050283;28;20500;-76
2022/11/15 10:59:46;;;;;;;9.77;7.43;;;;;;;12.77;86.63;99806.63;5051628;28;20462;-75
2022/11/15 11:02:29;;;;;;;8.48;7.05;;;;;;;12.88;86.42;99790.00;5049512;28;20401;-74
2022/11/15 11:04:54;;;;;;;8.85;7.13;;;;;;;12.88;86.38;99784.56;5050704;28;20845;-74
2022/11/15 11:07:24;;;;;;;17.53;7.37;;;;;;;12.91;86.29;99783.19;5053751;28;20491;-74
2022/11/15 11:10:23;;;;;;;8.90;7.05;;;;;;;12.72;86.99;99782.97;5046728;28;20408;-75
2022/11/15 11:12:48;;;;;;;11.93;7.55;;;;;;;12.91;86.67;99773.13;5055038;28;20968;-75
2022/11/15 11:15:15;;;;;;;11.97;6.77;;;;;;;12.98;86.18;99767.38;5060220;28;20498;-74
2022/11/15 11:18:09;;;;;;;9.60;5.40;;;;;;;13.10;85.89;99753.53;5060169;28;20891;-75
2022/11/15 11:20:42;;;;;;;6.20;4.35;;;;;;;13.09;86.11;99744.53;5052589;28;20419;-74
2022/11/15 11:23:13;;;;;;;8.95;4.45;;;;;;;13.09;86.37;99739.09;5048865;28;20440;-75
2022/11/15 11:26:32;;;;;;;4.50;4.10;;;;;;;13.24;85.81;99744.47;5051521;28;20759;-74
2022/11/15 11:29:38;;;;;;;3.87;3.53;;;;;;;13.32;85.87;99737.63;5030747;28;20893;-74
2022/11/15 11:32:45;;;;;;;4.13;3.70;;;;;;;13.53;85.00;99734.50;5051666;28;20433;-74
2022/11/15 11:35:27;;;;;;;3.47;3.17;;;;;;;13.65;84.43;99730.63;5036047;28;20471;-74
2022/11/15 11:38:16;;;;;;;3.55;3.25;;;;;;;13.53;84.50;99729.06;5048633;28;20413;-75
2022/11/15 11:40:50;;;;;;;4.87;3.23;;;;;;;13.62;84.13;99718.41;5056572;28;20405;-75
2022/11/15 11:43:18;;;;;;;3.45;3.10;;;;;;;13.69;83.67;99710.72;5057136;28;20488;-74
2022/11/15 11:46:22;;;;;;;3.05;2.78;;;;;;;13.75;83.36;99714.22;5049464;28;20977;-74
2022/11/15 11:49:01;;;;;;;3.75;2.90;;;;;;;13.76;83.30;99716.66;5046565;28;20934;-74
2022/11/15 11:51:38;;;;;;;5.35;3.35;;;;;;;13.80;83.43;99717.72;5059284;28;20473;-75
2022/11/15 11:54:09;;;;;;;4.65;2.75;;;;;;;13.82;82.96;99714.72;5054337;28;20385;-74
2022/11/15 11:56:39;;;;;;;4.07;3.08;;;;;;;13.85;82.46;99719.59;5054837;28;20493;-75